createdAt,value
2018-06-19T00:00:38.234Z,20.60
2018-06-19T00:03:06.542Z,20.50
2018-06-19T00:05:34.827Z,20.50
2018-06-19T00:08:03.146Z,20.50
2018-06-19T00:10:32.136Z,20.50
2018-06-19T00:13:00.394Z,20.50
2018-06-19T00:15:28.722Z,20.50
2018-06-19T00:18:01.039Z,20.50
2018-06-19T00:20:29.343Z,20.50
2018-06-19T00:22:57.743Z,20.50
2018-06-19T00:25:25.953Z,20.40
2018-06-19T00:27:54.146Z,20.50
2018-06-19T00:30:22.474Z,20.50
2018-06-19T00:35:18.668Z,20.40
2018-06-19T00:37:46.866Z,20.50
2018-06-19T00:40:15.170Z,20.50
2018-06-19T00:42:43.451Z,20.40
2018-06-19T00:45:11.832Z,20.40
2018-06-19T00:47:40.185Z,20.40
2018-06-19T00:50:08.395Z,20.40
2018-06-19T00:52:36.758Z,20.40
2018-06-19T00:55:04.991Z,20.40
2018-06-19T00:57:33.187Z,20.30
2018-06-19T01:00:01.404Z,20.30
2018-06-19T01:02:29.598Z,20.30
2018-06-19T01:04:57.844Z,20.30
2018-06-19T01:07:26.150Z,20.30
2018-06-19T01:09:54.609Z,20.30
2018-06-19T01:12:22.859Z,20.30
2018-06-19T01:14:51.075Z,20.30
2018-06-19T01:19:47.326Z,20.30
2018-06-19T01:22:15.511Z,20.20
2018-06-19T01:24:43.800Z,20.20
2018-06-19T01:27:12.143Z,20.10
2018-06-19T01:29:40.483Z,20.10
2018-06-19T01:32:09.689Z,20.00
2018-06-19T01:34:38.178Z,20.00
2018-06-19T01:37:06.373Z,20.00
2018-06-19T01:39:34.818Z,19.90
2018-06-19T01:42:03.003Z,19.90
2018-06-19T01:44:31.208Z,19.80
2018-06-19T01:46:59.460Z,19.80
2018-06-19T01:51:55.674Z,19.80
2018-06-19T01:54:23.854Z,19.70
2018-06-19T01:56:52.069Z,19.60
2018-06-19T01:59:20.250Z,19.50
2018-06-19T02:01:48.518Z,19.40
2018-06-19T02:04:16.757Z,19.30
2018-06-19T02:06:44.974Z,19.30
2018-06-19T02:09:13.160Z,19.20
2018-06-19T02:11:41.370Z,19.20
2018-06-19T02:14:09.579Z,19.20
2018-06-19T02:16:37.795Z,19.10
2018-06-19T02:19:05.990Z,19.10
2018-06-19T02:24:02.287Z,19.00
2018-06-19T02:26:30.486Z,19.00
2018-06-19T02:28:58.663Z,19.00
2018-06-19T02:31:26.967Z,19.00
2018-06-19T02:33:55.174Z,18.90
2018-06-19T02:36:23.447Z,18.90
2018-06-19T02:38:51.649Z,18.90
2018-06-19T02:41:19.864Z,18.90
2018-06-19T02:43:48.056Z,18.90
2018-06-19T02:46:16.312Z,18.90
2018-06-19T02:48:44.513Z,19.00
2018-06-19T02:51:12.786Z,19.10
2018-06-19T02:53:41.057Z,19.20
2018-06-19T02:56:10.168Z,19.30
2018-06-19T02:58:38.442Z,19.30
2018-06-19T03:01:06.654Z,19.30
2018-06-19T03:03:34.877Z,19.30
2018-06-19T03:08:31.206Z,19.20
2018-06-19T03:10:59.430Z,19.30
2018-06-19T03:13:27.625Z,19.30
2018-06-19T03:15:55.851Z,19.30
2018-06-19T03:18:24.031Z,19.40
2018-06-19T03:20:52.397Z,19.40
2018-06-19T03:23:20.593Z,19.50
2018-06-19T03:25:48.839Z,19.50
2018-06-19T03:28:17.030Z,19.50
2018-06-19T03:30:45.314Z,19.60
2018-06-19T03:33:13.503Z,19.60
2018-06-19T03:35:41.799Z,19.40
2018-06-19T03:38:10.938Z,19.10
2018-06-19T03:40:39.177Z,18.80
2018-06-19T03:43:08.363Z,18.60
2018-06-19T03:45:36.592Z,18.50
2018-06-19T03:48:04.889Z,18.40
2018-06-19T03:50:33.282Z,18.40
2018-06-19T03:53:01.494Z,18.30
2018-06-19T03:55:29.720Z,18.20
2018-06-19T03:57:57.934Z,18.10
2018-06-19T04:00:27.028Z,18.10
2018-06-19T04:02:55.339Z,18.10
2018-06-19T04:05:23.590Z,18.10
2018-06-19T04:07:51.826Z,18.00
2018-06-19T04:10:21.119Z,18.10
2018-06-19T04:12:49.374Z,18.10
2018-06-19T04:15:17.597Z,18.20
2018-06-19T04:17:45.890Z,18.20
2018-06-19T04:20:14.062Z,18.20
2018-06-19T04:22:42.256Z,18.20
2018-06-19T04:25:10.433Z,18.10
2018-06-19T04:27:38.642Z,18.10
2018-06-19T04:30:06.947Z,18.20
2018-06-19T04:32:35.397Z,18.30
2018-06-19T04:35:03.607Z,18.40
2018-06-19T04:37:32.825Z,18.50
2018-06-19T04:40:01.054Z,18.50
2018-06-19T04:42:29.325Z,18.60
2018-06-19T04:44:57.559Z,18.60
2018-06-19T04:50:23.907Z,18.70
2018-06-19T04:52:51.859Z,18.90
2018-06-19T04:55:19.824Z,19.00
2018-06-19T04:57:47.928Z,19.10
2018-06-19T05:00:16.112Z,19.20
2018-06-19T05:02:44.091Z,19.30
2018-06-19T05:05:12.386Z,19.30
2018-06-19T05:07:40.444Z,19.40
2018-06-19T05:10:08.403Z,19.40
2018-06-19T05:12:36.359Z,19.40
2018-06-19T05:15:04.376Z,19.50
2018-06-19T05:17:32.339Z,19.50
2018-06-19T05:25:16.970Z,19.60
2018-06-19T05:30:12.885Z,19.60
2018-06-19T05:32:41.090Z,19.60
2018-06-19T05:35:09.120Z,19.70
2018-06-19T05:37:37.140Z,19.80
2018-06-19T05:40:05.251Z,20.00
2018-06-19T05:42:33.323Z,20.00
2018-06-19T05:45:01.618Z,20.00
2018-06-19T05:47:29.663Z,19.90
2018-06-19T05:49:57.770Z,19.80
2018-06-19T05:52:25.868Z,19.80
2018-06-19T05:54:53.898Z,19.80
2018-06-19T05:59:49.863Z,19.80
2018-06-19T06:02:17.841Z,19.90
2018-06-19T06:07:13.752Z,20.10
2018-06-19T06:09:41.804Z,20.10
2018-06-19T06:12:09.755Z,20.20
2018-06-19T06:14:37.724Z,20.20
2018-06-19T06:17:05.670Z,20.10
2018-06-19T06:19:33.667Z,20.00
2018-06-19T06:22:01.813Z,20.10
2018-06-19T06:24:29.780Z,19.90
2018-06-19T06:26:57.761Z,19.80
2018-06-19T06:29:25.808Z,19.60
2018-06-19T06:31:53.823Z,19.70
2018-06-19T06:36:49.990Z,19.90
2018-06-19T06:39:18.473Z,19.90
2018-06-19T06:41:46.549Z,19.90
2018-06-19T06:44:14.591Z,19.90
2018-06-19T06:46:43.435Z,20.10
2018-06-19T06:49:11.601Z,20.30
2018-06-19T06:51:39.669Z,20.40
2018-06-19T06:54:08.014Z,20.60
2018-06-19T06:56:36.073Z,20.70
2018-06-19T06:59:04.128Z,20.80
2018-06-19T07:01:32.179Z,20.60
2018-06-19T07:04:00.173Z,20.60
2018-06-19T07:06:28.142Z,20.80
2018-06-19T07:08:56.305Z,20.80
2018-06-19T07:11:24.324Z,20.80
2018-06-19T07:16:20.709Z,20.90
2018-06-19T07:21:16.646Z,21.00
2018-06-19T07:23:44.790Z,21.00
2018-06-19T07:26:13.368Z,21.20
2018-06-19T07:28:41.780Z,21.40
2018-06-19T07:31:10.276Z,21.40
2018-06-19T07:33:38.604Z,21.40
2018-06-19T07:36:06.569Z,21.40
2018-06-19T07:38:34.759Z,21.40
2018-06-19T07:41:02.752Z,21.40
2018-06-19T07:43:30.823Z,21.50
2018-06-19T07:45:58.947Z,21.50
2018-06-19T07:50:55.085Z,21.80
2018-06-19T07:53:23.073Z,21.80
2018-06-19T07:55:51.131Z,21.70
2018-06-19T07:58:19.188Z,21.90
2018-06-19T08:00:47.268Z,21.90
2018-06-19T08:03:15.851Z,22.00
2018-06-19T08:05:44.836Z,22.10
2018-06-19T08:08:12.920Z,22.30
2018-06-19T08:10:42.125Z,22.30
2018-06-19T08:13:10.285Z,22.20
2018-06-19T08:15:39.539Z,22.20
2018-06-19T08:20:35.824Z,22.50
2018-06-19T08:23:03.820Z,22.40
2018-06-19T08:25:31.824Z,22.10
2018-06-19T08:27:59.960Z,22.10
2018-06-19T08:30:27.979Z,22.10
2018-06-19T08:32:56.079Z,22.30
2018-06-19T08:35:24.055Z,22.50
2018-06-19T08:37:52.137Z,22.80
2018-06-19T08:40:20.247Z,23.10
2018-06-19T08:42:48.279Z,23.40
2018-06-19T08:45:16.980Z,23.50
2018-06-19T08:47:44.963Z,23.60
2018-06-19T08:50:13.087Z,23.40
2018-06-19T08:52:42.284Z,23.50
2018-06-19T08:55:11.434Z,23.70
2018-06-19T08:57:39.457Z,23.70
2018-06-19T09:00:07.468Z,23.80
2018-06-19T09:02:35.903Z,23.80
2018-06-19T09:05:04.720Z,23.80
2018-06-19T09:07:32.987Z,23.70
2018-06-19T09:10:00.960Z,23.90
2018-06-19T09:12:29.016Z,24.00
2018-06-19T09:14:57.144Z,24.00
2018-06-19T09:17:25.267Z,24.00
2018-06-19T09:19:53.545Z,24.20
2018-06-19T09:22:21.701Z,24.30
2018-06-19T09:24:49.988Z,24.50
2018-06-19T09:27:18.244Z,24.70
2018-06-19T09:29:46.516Z,25.00
2018-06-19T09:32:14.751Z,25.40
2018-06-19T09:34:43.192Z,25.60
2018-06-19T09:37:11.199Z,25.70
2018-06-19T09:39:39.178Z,25.60
2018-06-19T09:42:07.278Z,25.60
2018-06-19T09:44:35.411Z,25.80
2018-06-19T09:49:32.515Z,25.90
2018-06-19T09:52:00.656Z,26.10
2018-06-19T09:54:28.995Z,26.10
2018-06-19T09:56:57.592Z,26.20
2018-06-19T09:59:25.555Z,26.50
2018-06-19T10:04:21.519Z,26.30
2018-06-19T10:11:47.179Z,26.40
2018-06-19T10:14:16.376Z,26.70
2018-06-19T10:16:44.675Z,26.80
2018-06-19T10:19:12.745Z,26.80
2018-06-19T10:21:40.867Z,26.70
2018-06-19T10:24:08.921Z,26.90
2018-06-19T10:26:37.144Z,27.00
2018-06-19T10:29:05.366Z,26.60
2018-06-19T10:31:33.524Z,26.10
2018-06-19T10:36:29.407Z,25.90
2018-06-19T10:38:57.405Z,25.90
2018-06-19T10:41:25.407Z,26.00
2018-06-19T10:43:54.327Z,26.10
2018-06-19T10:46:22.494Z,26.20
2018-06-19T10:48:50.587Z,26.50
2018-06-19T10:51:18.710Z,26.40
2018-06-19T10:53:46.983Z,26.40
2018-06-19T10:56:16.086Z,26.40
2018-06-19T10:58:44.173Z,26.80
2018-06-19T11:01:12.245Z,27.20
2018-06-19T11:03:40.376Z,27.40
2018-06-19T11:06:08.525Z,27.30
2018-06-19T11:08:36.690Z,27.30
2018-06-19T11:11:04.835Z,26.80
2018-06-19T11:13:32.850Z,27.00
2018-06-19T11:16:00.908Z,27.20
2018-06-19T11:18:28.972Z,27.30
2018-06-19T11:20:56.984Z,27.20
2018-06-19T11:23:24.964Z,27.10
2018-06-19T11:25:53.124Z,27.10
2018-06-19T11:28:21.124Z,26.80
2018-06-19T11:30:49.172Z,26.30
2018-06-19T11:33:17.918Z,26.10
2018-06-19T11:35:46.616Z,26.00
2018-06-19T11:38:14.848Z,25.50
2018-06-19T11:40:42.904Z,25.30
2018-06-19T11:43:10.979Z,25.20
2018-06-19T11:45:45.097Z,25.10
2018-06-19T11:48:13.287Z,25.00
2018-06-19T11:50:41.264Z,24.90
2018-06-19T11:53:09.500Z,24.90
2018-06-19T11:55:37.544Z,25.10
2018-06-19T12:00:33.504Z,25.70
2018-06-19T12:03:01.532Z,26.00
2018-06-19T12:05:30.393Z,26.20
2018-06-19T12:07:58.412Z,26.40
2018-06-19T12:10:26.462Z,26.70
2018-06-19T12:12:54.591Z,27.20
2018-06-19T12:15:22.636Z,27.30
2018-06-19T12:17:51.484Z,26.90
2018-06-19T12:20:19.880Z,26.80
2018-06-19T12:22:47.926Z,26.80
2018-06-19T12:25:16.024Z,26.90
2018-06-19T12:27:44.189Z,27.10
2018-06-19T12:30:12.282Z,27.30
2018-06-19T12:32:40.536Z,27.50
2018-06-19T12:37:36.483Z,27.80
2018-06-19T12:40:04.800Z,27.90
2018-06-19T12:42:32.801Z,27.90
2018-06-19T12:45:00.865Z,28.00
2018-06-19T12:50:36.770Z,27.70
2018-06-19T12:55:51.401Z,27.30
2018-06-19T12:58:20.181Z,27.10
2018-06-19T13:00:48.483Z,26.90
2018-06-19T13:03:28.751Z,26.80
2018-06-19T13:06:09.222Z,26.90
2018-06-19T13:08:37.630Z,26.80
2018-06-19T13:11:06.786Z,27.00
2018-06-19T13:13:46.571Z,27.40
2018-06-19T13:21:23.756Z,28.10
2018-06-19T13:23:52.099Z,28.00
2018-06-19T13:26:20.693Z,28.10
2018-06-19T13:30:00.467Z,28.10
2018-06-19T13:32:31.097Z,27.80
2018-06-19T13:34:59.360Z,27.40
2018-06-19T13:37:27.539Z,27.40
2018-06-19T13:41:13.519Z,27.50
2018-06-19T13:46:15.949Z,26.70
2018-06-19T13:48:44.115Z,26.70
2018-06-19T13:51:12.724Z,26.80
2018-06-19T13:57:26.847Z,26.50
2018-06-19T13:59:54.936Z,26.50
2018-06-19T14:02:23.007Z,26.70
2018-06-19T14:04:51.439Z,26.80
2018-06-19T14:07:20.400Z,26.70
2018-06-19T14:09:59.929Z,26.50
2018-06-19T14:13:12.988Z,26.30
2018-06-19T14:15:50.327Z,25.90
2018-06-19T14:18:20.212Z,25.70
2018-06-19T14:20:48.550Z,25.80
2018-06-19T14:23:16.567Z,25.60
2018-06-19T14:25:44.628Z,25.60
2018-06-19T14:28:14.245Z,25.60
2018-06-19T14:30:42.335Z,25.60
2018-06-19T14:33:10.536Z,25.40
2018-06-19T14:35:38.799Z,25.30
2018-06-19T14:40:35.108Z,25.00
2018-06-19T14:43:03.590Z,24.90
2018-06-19T14:45:31.712Z,24.90
2018-06-19T14:47:59.904Z,24.80
2018-06-19T14:50:27.999Z,24.70
2018-06-19T14:52:55.966Z,24.70
2018-06-19T14:55:24.211Z,24.70
2018-06-19T14:57:52.237Z,24.70
2018-06-19T15:00:20.743Z,24.80
2018-06-19T15:02:49.033Z,24.80
2018-06-19T15:05:17.113Z,24.70
2018-06-19T15:07:50.720Z,24.70
2018-06-19T15:10:19.008Z,24.70
2018-06-19T15:12:47.036Z,24.70
2018-06-19T15:15:15.876Z,24.70
2018-06-19T15:17:44.009Z,24.70
2018-06-19T15:20:12.120Z,24.80
2018-06-19T15:22:40.217Z,24.70
2018-06-19T15:30:05.780Z,24.10
2018-06-19T15:32:33.883Z,24.10
2018-06-19T15:35:02.103Z,24.00
2018-06-19T15:37:30.579Z,23.90
2018-06-19T15:42:27.425Z,23.70
2018-06-19T15:44:55.504Z,23.60
2018-06-19T15:47:23.547Z,23.60
2018-06-19T15:49:51.908Z,23.60
2018-06-19T15:52:20.744Z,23.60
2018-06-19T15:57:17.500Z,23.80
2018-06-19T15:59:45.573Z,24.30
2018-06-19T16:02:13.669Z,24.70
2018-06-19T16:04:41.720Z,25.00
2018-06-19T16:07:10.025Z,25.60
2018-06-19T16:09:38.219Z,26.30
2018-06-19T16:12:06.298Z,26.40
2018-06-19T16:14:35.450Z,26.30
2018-06-19T16:17:03.585Z,26.00
2018-06-19T16:19:31.748Z,25.70
2018-06-19T16:21:59.824Z,25.70
2018-06-19T16:24:27.944Z,25.70
2018-06-19T16:26:56.140Z,26.40
2018-06-19T16:29:24.188Z,27.00
2018-06-19T16:31:52.241Z,27.50
2018-06-19T16:36:51.299Z,26.70
2018-06-19T16:39:20.408Z,26.20
2018-06-19T16:41:48.556Z,25.90
2018-06-19T16:44:16.690Z,25.70
2018-06-19T16:46:44.967Z,25.50
2018-06-19T16:49:13.091Z,25.20
2018-06-19T16:51:41.559Z,25.10
2018-06-19T16:54:10.045Z,25.10
2018-06-19T16:56:38.139Z,25.40
2018-06-19T16:59:06.211Z,25.70
2018-06-19T17:01:34.520Z,26.00
2018-06-19T17:04:02.577Z,26.10
2018-06-19T17:06:30.592Z,26.20
2018-06-19T17:08:58.649Z,26.10
2018-06-19T17:11:26.743Z,26.00
2018-06-19T17:13:55.175Z,25.80
2018-06-19T17:16:23.312Z,25.60
2018-06-19T17:18:51.279Z,25.40
2018-06-19T17:23:48.828Z,25.10
2018-06-19T17:26:17.730Z,25.00
2018-06-19T17:28:46.501Z,25.00
2018-06-19T17:31:15.781Z,25.00
2018-06-19T17:36:11.809Z,25.00
2018-06-19T17:38:39.898Z,25.10
2018-06-19T17:41:07.968Z,25.20
2018-06-19T17:43:36.036Z,25.30
2018-06-19T17:46:04.166Z,25.60
2018-06-19T17:48:32.260Z,27.20
2018-06-19T17:51:00.329Z,29.00
2018-06-19T17:53:29.137Z,30.70
2018-06-19T17:55:57.350Z,31.30
2018-06-19T17:58:25.463Z,32.30
2018-06-19T18:00:53.551Z,33.00
2018-06-19T18:03:21.879Z,33.30
2018-06-19T18:08:19.258Z,33.60
2018-06-19T18:10:47.410Z,32.90
2018-06-19T18:13:17.736Z,32.50
2018-06-19T18:15:46.543Z,31.90
2018-06-19T18:18:14.753Z,32.20
2018-06-19T18:20:42.862Z,32.40
2018-06-19T18:23:11.807Z,32.40
2018-06-19T18:25:40.017Z,32.10
2018-06-19T18:28:08.124Z,31.60
2018-06-19T18:30:36.272Z,31.50
2018-06-19T18:33:04.528Z,30.80
2018-06-19T18:35:32.718Z,29.50
2018-06-19T18:38:00.784Z,28.60
2018-06-19T18:40:28.762Z,28.30
2018-06-19T18:42:56.903Z,28.20
2018-06-19T18:45:25.067Z,27.80
2018-06-19T18:47:53.148Z,27.00
2018-06-19T18:50:21.632Z,26.10
2018-06-19T18:52:49.771Z,25.40
2018-06-19T18:55:17.783Z,24.80
2018-06-19T18:57:45.898Z,24.50
2018-06-19T19:00:13.940Z,24.20
2018-06-19T19:02:42.077Z,23.80
2018-06-19T19:05:10.155Z,23.50
2018-06-19T19:07:38.495Z,23.30
2018-06-19T19:10:12.103Z,23.00
2018-06-19T19:12:40.396Z,22.90
2018-06-19T19:17:47.431Z,22.60
2018-06-19T19:20:15.519Z,22.50
2018-06-19T19:22:43.708Z,22.40
2018-06-19T19:25:11.840Z,22.30
2018-06-19T19:27:45.540Z,22.30
2018-06-19T19:32:41.552Z,22.10
2018-06-19T19:37:42.825Z,22.00
2018-06-19T19:40:11.173Z,22.00
2018-06-19T19:42:39.261Z,21.90
2018-06-19T19:45:07.323Z,21.80
2018-06-19T19:47:41.247Z,21.80
2018-06-19T19:50:09.562Z,21.70
2018-06-19T19:52:37.619Z,21.60
2018-06-19T19:55:05.578Z,21.50
2018-06-19T20:00:09.035Z,21.40
2018-06-19T20:02:37.156Z,21.40
2018-06-19T20:05:05.271Z,21.40
2018-06-19T20:07:34.051Z,21.40
2018-06-19T20:10:02.945Z,21.40
2018-06-19T20:12:31.133Z,21.40
2018-06-19T20:14:59.236Z,21.40
2018-06-19T20:17:27.284Z,21.40
2018-06-19T20:19:55.347Z,21.40
2018-06-19T20:22:23.336Z,21.30
2018-06-19T20:24:51.345Z,21.30
2018-06-19T20:27:19.527Z,21.20
2018-06-19T20:29:47.827Z,21.20
2018-06-19T20:32:15.844Z,21.20
2018-06-19T20:34:43.900Z,21.10
2018-06-19T20:37:12.036Z,21.10
2018-06-19T20:42:07.990Z,21.10
2018-06-19T20:47:05.143Z,21.00
2018-06-19T20:49:33.475Z,20.90
2018-06-19T20:54:31.470Z,20.90
2018-06-19T20:56:59.942Z,20.80
2018-06-19T20:59:27.979Z,20.90
2018-06-19T21:01:56.092Z,20.90
2018-06-19T21:04:24.704Z,20.80
2018-06-19T21:06:52.909Z,20.80
2018-06-19T21:09:20.948Z,20.80
2018-06-19T21:11:49.031Z,20.80
2018-06-19T21:14:16.988Z,20.70
2018-06-19T21:16:45.146Z,20.70
2018-06-19T21:19:13.221Z,20.60
2018-06-19T21:21:41.411Z,20.60
2018-06-19T21:24:09.772Z,20.60
2018-06-19T21:26:37.746Z,20.50
2018-06-19T21:29:05.952Z,20.50
2018-06-19T21:31:35.115Z,20.40
2018-06-19T21:36:31.111Z,20.40
2018-06-19T21:38:59.179Z,20.40
2018-06-19T21:43:55.306Z,20.40
2018-06-19T21:46:23.322Z,20.30
2018-06-19T21:51:19.335Z,20.20
2018-06-19T21:53:47.420Z,20.30
2018-06-19T21:56:15.567Z,20.30
2018-06-19T22:01:11.680Z,20.10
2018-06-19T22:03:39.979Z,20.10
2018-06-19T22:06:08.002Z,20.10
2018-06-19T22:08:44.071Z,20.10
2018-06-19T22:13:42.782Z,20.00
2018-06-19T22:16:10.832Z,19.90
2018-06-19T22:18:39.892Z,19.90
2018-06-19T22:21:08.024Z,19.90
2018-06-19T22:23:36.124Z,19.90
2018-06-19T22:26:04.375Z,19.90
2018-06-19T22:28:32.351Z,19.90
2018-06-19T22:31:00.489Z,19.90
2018-06-19T22:35:56.520Z,19.80
2018-06-19T22:38:24.591Z,19.80
2018-06-19T22:40:52.641Z,19.80
2018-06-19T22:43:20.803Z,19.80
2018-06-19T22:45:48.859Z,19.80
2018-06-19T22:48:16.955Z,19.80
2018-06-19T22:50:45.008Z,19.70
2018-06-19T22:53:12.999Z,19.70
2018-06-19T22:55:41.083Z,19.60
2018-06-19T22:58:09.076Z,19.60
2018-06-19T23:00:37.128Z,19.50
2018-06-19T23:08:03.180Z,19.50
2018-06-19T23:10:31.277Z,19.50
2018-06-19T23:13:00.575Z,19.40
2018-06-19T23:15:28.732Z,19.40
2018-06-19T23:17:56.791Z,19.40
2018-06-19T23:22:53.035Z,19.30
2018-06-19T23:25:21.071Z,19.30
2018-06-19T23:27:49.052Z,19.30
2018-06-19T23:30:18.103Z,19.20
2018-06-19T23:32:46.144Z,19.20
2018-06-19T23:35:14.144Z,19.20
2018-06-19T23:37:42.843Z,19.20
2018-06-19T23:40:10.939Z,19.20
2018-06-19T23:42:39.045Z,19.10
2018-06-19T23:45:06.967Z,19.10
2018-06-19T23:47:35.404Z,19.00
2018-06-19T23:50:03.492Z,19.00
2018-06-19T23:52:31.797Z,19.00
2018-06-19T23:55:00.218Z,18.90
2018-06-19T23:57:28.263Z,18.90
2018-06-19T23:59:56.247Z,18.90
